Time;durP1;ratioP1;P1;durP2;ratioP2;P2;SDS_P1;SDS_P2;PMS_P1;PMS_P2;Temp;Humidity;BMP_temperature;BMP_pressure;BME280_temperature;BME280_humidity;BME280_pressure;Samples;Min_cycle;Max_cycle;Signal;HPM_P1;HPM_P2
2022/07/01 00:00:59;;;;;;;0.60;0.20;;;19.30;99.90;;;;;;4995105;28;20485;-69
2022/07/01 00:03:27;;;;;;;0.60;0.10;;;19.30;99.90;;;;;;5008530;28;20476;-69
2022/07/01 00:05:56;;;;;;;0.70;0.20;;;19.20;99.90;;;;;;5007988;28;20456;-69
2022/07/01 00:08:24;;;;;;;0.60;0.10;;;19.00;99.90;;;;;;4994470;28;20442;-68
2022/07/01 00:10:52;;;;;;;0.60;0.10;;;19.10;99.90;;;;;;4995457;28;20711;-69
2022/07/01 00:13:20;;;;;;;0.60;0.30;;;19.20;99.90;;;;;;4994976;28;20483;-69
2022/07/01 00:15:48;;;;;;;0.80;0.30;;;19.20;99.90;;;;;;4998850;28;20854;-69
2022/07/01 00:18:15;;;;;;;0.60;0.20;;;19.00;99.90;;;;;;5014550;28;20452;-68
2022/07/01 00:20:43;;;;;;;0.70;0.20;;;18.90;99.90;;;;;;5009174;28;20481;-70
2022/07/01 00:23:13;;;;;;;0.97;0.30;;;18.90;99.90;;;;;;4994556;28;20465;-69
2022/07/01 00:25:41;;;;;;;0.60;0.30;;;18.80;99.90;;;;;;4994430;28;20457;-69
2022/07/01 00:28:09;;;;;;;0.60;0.20;;;18.80;99.90;;;;;;4994232;28;20449;-69
2022/07/01 00:30:38;;;;;;;0.63;0.20;;;18.80;99.90;;;;;;4994678;28;20932;-70
2022/07/01 00:33:05;;;;;;;0.60;0.20;;;18.80;99.90;;;;;;4994446;28;20469;-68
2022/07/01 00:35:33;;;;;;;0.60;0.10;;;18.70;99.90;;;;;;4994753;28;20449;-68
2022/07/01 00:38:01;;;;;;;0.60;0.20;;;18.90;99.90;;;;;;4995035;28;20472;-68
2022/07/01 00:40:31;;;;;;;0.60;0.10;;;19.00;99.90;;;;;;4996580;28;20496;-68
2022/07/01 00:42:59;;;;;;;0.60;0.10;;;19.20;99.90;;;;;;4998804;28;20487;-69
2022/07/01 00:45:27;;;;;;;0.60;0.10;;;19.20;99.90;;;;;;5007962;28;20444;-69
2022/07/01 00:47:55;;;;;;;0.60;0.10;;;19.30;99.90;;;;;;5005249;28;20468;-69
2022/07/01 00:50:24;;;;;;;0.60;0.10;;;19.30;99.90;;;;;;4996628;28;20450;-69
2022/07/01 00:52:52;;;;;;;0.60;0.10;;;19.40;99.90;;;;;;4997896;28;20472;-67
2022/07/01 00:55:20;;;;;;;0.60;0.10;;;19.40;99.90;;;;;;5013725;28;20455;-67
2022/07/01 00:57:49;;;;;;;0.87;0.53;;;19.40;99.90;;;;;;5013407;28;20536;-68
2022/07/01 01:00:20;;;;;;;0.70;0.20;;;19.30;99.90;;;;;;5013615;28;20487;-69
2022/07/01 01:02:48;;;;;;;0.60;0.20;;;19.10;1.00;;;;;;5013298;28;20472;-68
2022/07/01 01:05:17;;;;;;;0.60;0.10;;;19.10;1.00;;;;;;5013209;28;20935;-68
2022/07/01 01:07:45;;;;;;;0.60;0.10;;;19.10;1.00;;;;;;5008930;28;20462;-69
2022/07/01 01:10:14;;;;;;;0.60;0.10;;;19.10;1.00;;;;;;5011698;28;20456;-69
2022/07/01 01:12:42;;;;;;;0.60;0.10;;;19.30;1.00;;;;;;5013374;28;20723;-69
2022/07/01 01:15:18;;;;;;;0.80;0.53;;;19.20;1.00;;;;;;5013154;28;20448;-68
2022/07/01 01:17:47;;;;;;;0.60;0.20;;;19.20;1.00;;;;;;5013120;28;20446;-69
2022/07/01 01:20:17;;;;;;;0.60;0.20;;;19.10;1.00;;;;;;5013634;28;20486;-69
2022/07/01 01:22:48;;;;;;;0.60;0.13;;;18.90;1.00;;;;;;5011998;28;20567;-69
2022/07/01 01:25:16;;;;;;;0.60;0.10;;;18.90;1.00;;;;;;5012897;28;20950;-69
2022/07/01 01:27:45;;;;;;;0.60;0.20;;;18.80;1.00;;;;;;5005281;28;20697;-69
2022/07/01 01:30:14;;;;;;;0.60;0.20;;;18.80;1.00;;;;;;4993508;28;20821;-69
2022/07/01 01:32:43;;;;;;;0.60;0.20;;;18.90;1.00;;;;;;4991363;28;20464;-69
2022/07/01 01:35:13;;;;;;;0.60;0.20;;;18.90;1.00;;;;;;4991239;28;20441;-68
2022/07/01 01:37:41;;;;;;;0.60;0.20;;;18.80;1.00;;;;;;4991306;28;20519;-68
2022/07/01 01:40:13;;;;;;;0.60;0.10;;;18.90;1.00;;;;;;4991775;28;20500;-68
2022/07/01 01:42:42;;;;;;;0.80;0.40;;;18.80;1.00;;;;;;4991776;28;20473;-69
2022/07/01 01:45:11;;;;;;;0.60;0.10;;;18.70;1.00;;;;;;4992244;28;20463;-68
2022/07/01 01:47:39;;;;;;;0.60;0.10;;;18.20;1.00;;;;;;4993115;28;20652;-68
2022/07/01 01:50:09;;;;;;;0.60;0.10;;;18.20;1.00;;;;;;4993982;28;20540;-69
2022/07/01 01:52:38;;;;;;;0.60;0.20;;;18.20;1.00;;;;;;4993239;28;20481;-68
2022/07/01 01:55:06;;;;;;;0.60;0.10;;;18.20;1.00;;;;;;5002054;28;20560;-69
2022/07/01 01:57:36;;;;;;;0.60;0.10;;;18.30;1.00;;;;;;5012183;28;20487;-68
2022/07/01 02:00:05;;;;;;;0.70;0.40;;;18.40;1.00;;;;;;5012712;28;20465;-68
2022/07/01 02:02:33;;;;;;;0.70;0.30;;;18.10;1.00;;;;;;5012317;28;20516;-68
2022/07/01 02:05:01;;;;;;;0.60;0.20;;;18.10;1.00;;;;;;5012525;28;20444;-67
2022/07/01 02:07:29;;;;;;;0.70;0.30;;;17.90;1.00;;;;;;5013457;28;20993;-69
2022/07/01 02:09:57;;;;;;;0.90;0.50;;;17.80;1.00;;;;;;5014158;28;20445;-67
2022/07/01 02:12:25;;;;;;;0.60;0.20;;;17.60;1.00;;;;;;5012762;28;20475;-70
2022/07/01 02:14:54;;;;;;;0.60;0.30;;;17.50;1.00;;;;;;5012543;28;20455;-70
2022/07/01 02:17:22;;;;;;;0.60;0.10;;;17.50;1.00;;;;;;5012164;28;20475;-68
2022/07/01 02:19:50;;;;;;;0.60;0.10;;;17.40;1.00;;;;;;5012260;28;20459;-68
2022/07/01 02:22:18;;;;;;;0.60;0.10;;;17.40;1.00;;;;;;5012409;28;20858;-67
2022/07/01 02:24:46;;;;;;;0.60;0.20;;;17.40;1.00;;;;;;5012631;28;20932;-68
2022/07/01 02:27:14;;;;;;;0.60;0.20;;;17.40;1.00;;;;;;5007272;28;20459;-68
2022/07/01 02:29:42;;;;;;;0.80;0.20;;;17.60;1.00;;;;;;4994994;28;20852;-69
2022/07/01 02:32:11;;;;;;;0.60;0.10;;;17.70;1.00;;;;;;4996864;28;20465;-69
2022/07/01 02:34:40;;;;;;;0.60;0.10;;;17.70;1.00;;;;;;4996767;28;20453;-68
2022/07/01 02:37:09;;;;;;;0.60;0.10;;;17.90;1.00;;;;;;4998485;28;20447;-68
2022/07/01 02:39:36;;;;;;;0.80;0.30;;;17.90;1.00;;;;;;4998265;28;20449;-68
2022/07/01 02:44:50;;;;;;;0.97;0.47;;;17.90;1.00;;;;;;4995308;28;20453;-68
2022/07/01 02:47:20;;;;;;;0.60;0.10;;;17.70;1.00;;;;;;4995932;28;20982;-68
2022/07/01 02:49:48;;;;;;;0.60;0.10;;;17.70;1.00;;;;;;4998927;28;20550;-69
2022/07/01 02:52:16;;;;;;;0.60;0.10;;;17.80;1.00;;;;;;4995388;28;20872;-69
2022/07/01 02:54:44;;;;;;;0.60;0.10;;;17.80;1.00;;;;;;4994056;28;20848;-69
2022/07/01 02:57:12;;;;;;;0.60;0.10;;;18.00;1.00;;;;;;4976419;28;20544;-69
2022/07/01 02:59:40;;;;;;;0.60;0.10;;;18.00;1.00;;;;;;4987848;28;20449;-69
2022/07/01 03:04:39;;;;;;;0.60;0.10;;;18.10;1.00;;;;;;4914723;29;20457;-70
2022/07/01 03:07:08;;;;;;;0.60;0.10;;;18.00;1.00;;;;;;4918219;29;20471;-70
2022/07/01 03:09:36;;;;;;;0.60;0.10;;;18.10;1.00;;;;;;4918591;29;20440;-70
2022/07/01 03:12:24;;;;;;;0.60;0.17;;;18.10;1.00;;;;;;4918324;29;20524;-70
2022/07/01 03:14:52;;;;;;;0.60;0.10;;;18.10;1.00;;;;;;4899477;29;20446;-70
2022/07/01 03:17:20;;;;;;;0.60;0.20;;;18.10;1.00;;;;;;4899216;29;20815;-70
2022/07/01 03:19:51;;;;;;;0.60;0.10;;;18.10;1.00;;;;;;4899550;29;20794;-70
2022/07/01 03:22:19;;;;;;;0.60;0.10;;;18.20;1.00;;;;;;4899237;29;20489;-70
2022/07/01 03:24:47;;;;;;;0.60;0.13;;;18.30;1.00;;;;;;4899334;29;20900;-70
2022/07/01 03:27:16;;;;;;;0.60;0.10;;;18.30;1.00;;;;;;4899043;29;20452;-70
2022/07/01 03:29:44;;;;;;;0.60;0.10;;;18.40;1.00;;;;;;4899376;29;20961;-70
2022/07/01 03:32:13;;;;;;;0.60;0.17;;;18.40;1.00;;;;;;4899303;29;20453;-69
2022/07/01 03:34:45;;;;;;;0.60;0.10;;;18.30;1.00;;;;;;4899387;29;20452;-70
2022/07/01 03:37:15;;;;;;;0.67;0.37;;;18.20;1.00;;;;;;4898711;29;20944;-71
2022/07/01 03:39:44;;;;;;;0.60;0.10;;;18.10;1.00;;;;;;4899362;29;20458;-71
2022/07/01 03:42:12;;;;;;;0.60;0.10;;;18.00;1.00;;;;;;4897994;29;20600;-71
2022/07/01 03:44:40;;;;;;;0.60;0.10;;;18.10;1.00;;;;;;4899107;29;20449;-69
2022/07/01 03:47:08;;;;;;;0.60;0.10;;;18.10;1.00;;;;;;4898474;29;20467;-71
2022/07/01 03:49:37;;;;;;;0.60;0.17;;;18.10;1.00;;;;;;4898812;29;20450;-71
2022/07/01 03:52:06;;;;;;;0.60;0.10;;;18.20;1.00;;;;;;4899070;29;20449;-70
2022/07/01 03:54:37;;;;;;;0.60;0.20;;;18.20;1.00;;;;;;4898664;29;20465;-71
2022/07/01 03:57:08;;;;;;;0.60;0.10;;;18.20;1.00;;;;;;4898182;29;20762;-71
2022/07/01 03:59:38;;;;;;;0.60;0.13;;;18.30;1.00;;;;;;4898503;29;20456;-71
2022/07/01 04:02:07;;;;;;;0.60;0.20;;;18.30;1.00;;;;;;4898600;29;20489;-71
2022/07/01 04:04:36;;;;;;;0.60;0.10;;;18.30;1.00;;;;;;4898588;29;20470;-70
2022/07/01 04:07:06;;;;;;;0.60;0.20;;;18.30;1.00;;;;;;4898495;29;20457;-71
2022/07/01 04:09:36;;;;;;;0.60;0.10;;;18.20;1.00;;;;;;4898787;29;20832;-72
2022/07/01 04:12:07;;;;;;;0.60;0.20;;;18.10;1.00;;;;;;4898646;29;20442;-71
2022/07/01 04:14:36;;;;;;;0.60;0.30;;;18.10;1.00;;;;;;4898383;29;20613;-70
2022/07/01 04:17:04;;;;;;;0.60;0.10;;;18.00;1.00;;;;;;4881260;29;20492;-70
2022/07/01 04:19:33;;;;;;;0.60;0.10;;;18.00;1.00;;;;;;4879765;29;20974;-69
2022/07/01 04:24:47;;;;;;;0.60;0.10;;;18.30;1.00;;;;;;4879622;29;20454;-70
2022/07/01 04:27:15;;;;;;;0.60;0.10;;;18.40;1.00;;;;;;4879379;29;20969;-70
2022/07/01 04:29:43;;;;;;;0.60;0.13;;;18.50;1.00;;;;;;4879878;29;20460;-70
2022/07/01 04:32:11;;;;;;;0.60;0.10;;;18.50;1.00;;;;;;4878358;29;20476;-70
2022/07/01 04:34:38;;;;;;;0.60;0.20;;;18.50;1.00;;;;;;4879455;29;20461;-71
2022/07/01 04:37:07;;;;;;;0.60;0.20;;;18.60;1.00;;;;;;4879800;29;21009;-70
2022/07/01 04:39:35;;;;;;;0.60;0.20;;;18.60;1.00;;;;;;4880016;29;20830;-71
2022/07/01 04:42:04;;;;;;;0.60;0.10;;;18.60;1.00;;;;;;4879757;29;20500;-71
2022/07/01 04:44:34;;;;;;;0.60;0.10;;;18.60;1.00;;;;;;4879228;29;20474;-70
2022/07/01 04:47:09;;;;;;;0.60;0.10;;;18.60;1.00;;;;;;4879068;29;20453;-71
2022/07/01 04:49:37;;;;;;;0.70;0.30;;;18.30;1.00;;;;;;4880253;29;20459;-70
2022/07/01 04:52:05;;;;;;;0.60;0.20;;;18.00;1.00;;;;;;4878794;29;20447;-71
2022/07/01 04:54:33;;;;;;;0.60;0.10;;;17.70;1.00;;;;;;4879141;29;20470;-70
2022/07/01 04:57:01;;;;;;;0.60;0.10;;;17.70;1.00;;;;;;4879060;29;20450;-70
2022/07/01 04:59:30;;;;;;;0.60;0.10;;;17.80;1.00;;;;;;4879195;29;20451;-70
2022/07/01 05:01:59;;;;;;;0.60;0.10;;;17.80;1.00;;;;;;4878950;29;20956;-70
2022/07/01 05:04:28;;;;;;;0.60;0.10;;;17.80;1.00;;;;;;4895742;29;20517;-70
2022/07/01 05:06:56;;;;;;;0.60;0.20;;;17.90;1.00;;;;;;4897643;29;20521;-69
2022/07/01 05:09:23;;;;;;;0.60;0.10;;;17.90;1.00;;;;;;4897645;29;20450;-70
2022/07/01 05:11:54;;;;;;;0.90;0.40;;;18.10;1.00;;;;;;4897851;29;20825;-71
2022/07/01 05:14:22;;;;;;;0.60;0.20;;;18.10;1.00;;;;;;4897442;29;20473;-71
2022/07/01 05:16:51;;;;;;;0.60;0.10;;;18.10;1.00;;;;;;4897820;29;20458;-71
2022/07/01 05:22:04;;;;;;;0.60;0.10;;;18.00;1.00;;;;;;4897423;29;20460;-72
2022/07/01 05:24:33;;;;;;;0.60;0.10;;;18.00;1.00;;;;;;4897453;29;20480;-70
2022/07/01 05:27:02;;;;;;;0.60;0.10;;;18.20;1.00;;;;;;4897012;29;20497;-71
2022/07/01 05:29:31;;;;;;;0.60;0.20;;;18.10;1.00;;;;;;4896854;29;21126;-70
2022/07/01 05:32:00;;;;;;;0.60;0.10;;;17.90;1.00;;;;;;4897289;29;20495;-71
2022/07/01 05:34:28;;;;;;;0.60;0.10;;;17.90;1.00;;;;;;4896643;29;21035;-70
2022/07/01 05:36:56;;;;;;;0.60;0.10;;;17.90;1.00;;;;;;4893500;29;20467;-69
2022/07/01 05:39:25;;;;;;;0.60;0.10;;;17.90;1.00;;;;;;4895200;29;20539;-69
2022/07/01 05:41:52;;;;;;;0.70;0.23;;;18.00;1.00;;;;;;4895958;29;20460;-71
2022/07/01 05:44:21;;;;;;;0.60;0.20;;;17.90;1.00;;;;;;4892121;29;20886;-70
2022/07/01 05:46:49;;;;;;;0.60;0.20;;;17.90;1.00;;;;;;4896287;29;20544;-71
2022/07/01 05:49:18;;;;;;;0.60;0.20;;;17.80;1.00;;;;;;4896854;29;20453;-71
2022/07/01 05:51:46;;;;;;;0.60;0.17;;;17.60;1.00;;;;;;4896680;29;20453;-70
2022/07/01 05:54:14;;;;;;;0.60;0.10;;;17.70;1.00;;;;;;4895477;29;20480;-70
2022/07/01 05:56:42;;;;;;;0.60;0.10;;;17.80;1.00;;;;;;4900483;29;20459;-72
2022/07/01 05:59:11;;;;;;;0.60;0.10;;;17.80;1.00;;;;;;4887062;29;20536;-70
2022/07/01 06:01:39;;;;;;;0.60;0.10;;;17.80;1.00;;;;;;4905478;29;20449;-70
2022/07/01 06:04:07;;;;;;;0.60;0.10;;;17.80;1.00;;;;;;4912851;29;20571;-69
2022/07/01 06:06:36;;;;;;;0.60;0.10;;;18.00;1.00;;;;;;4914753;29;20444;-70
2022/07/01 06:09:04;;;;;;;0.60;0.10;;;18.20;1.00;;;;;;4910447;29;20456;-70
2022/07/01 06:11:32;;;;;;;0.60;0.10;;;18.20;1.00;;;;;;4903638;29;20453;-70
2022/07/01 06:14:00;;;;;;;0.60;0.10;;;18.20;1.00;;;;;;4890782;29;20524;-70
2022/07/01 06:16:28;;;;;;;0.60;0.10;;;18.30;1.00;;;;;;4894185;29;20934;-70
2022/07/01 06:18:58;;;;;;;0.60;0.17;;;18.30;1.00;;;;;;4894812;29;20819;-71
2022/07/01 06:21:27;;;;;;;0.60;0.20;;;;;;;;;;4894985;29;20456;-70
2022/07/01 06:23:56;;;;;;;0.60;0.10;;;18.30;1.00;;;;;;4896033;29;20493;-70
2022/07/01 06:26:24;;;;;;;0.60;0.10;;;18.50;1.00;;;;;;4895274;29;20461;-71
2022/07/01 06:28:52;;;;;;;0.60;0.20;;;18.70;99.90;;;;;;4896259;29;20454;-70
2022/07/01 06:31:20;;;;;;;0.60;0.10;;;18.70;99.90;;;;;;4896424;29;20445;-71
2022/07/01 06:33:48;;;;;;;0.60;0.20;;;18.80;99.90;;;;;;4896240;29;20494;-70
2022/07/01 06:36:16;;;;;;;0.60;0.10;;;18.90;99.90;;;;;;4895564;29;20799;-70
2022/07/01 06:38:44;;;;;;;0.60;0.10;;;18.90;99.90;;;;;;4896397;29;20860;-71
2022/07/01 06:41:28;;;;;;;0.60;0.20;;;19.00;99.90;;;;;;4895210;29;20846;-70
2022/07/01 06:43:56;;;;;;;0.60;0.10;;;18.90;99.90;;;;;;4895861;29;20932;-69
2022/07/01 06:46:26;;;;;;;0.60;0.20;;;18.90;99.90;;;;;;4895379;29;20830;-70
2022/07/01 06:48:55;;;;;;;0.60;0.10;;;18.50;99.90;;;;;;4896250;29;21031;-69
2022/07/01 06:51:23;;;;;;;0.60;0.20;;;18.60;99.90;;;;;;4896497;29;20451;-70
2022/07/01 06:53:51;;;;;;;0.60;0.20;;;18.50;99.90;;;;;;4896310;29;20525;-70
2022/07/01 06:56:20;;;;;;;0.70;0.20;;;18.30;99.90;;;;;;4895602;29;20456;-70
2022/07/01 06:58:48;;;;;;;0.60;0.20;;;18.30;99.90;;;;;;4895985;29;20448;-70
2022/07/01 07:01:17;;;;;;;0.60;0.10;;;18.30;99.90;;;;;;4896374;29;20475;-70
2022/07/01 07:03:45;;;;;;;0.60;0.17;;;18.50;99.90;;;;;;4895802;29;20493;-71
2022/07/01 07:06:13;;;;;;;0.60;0.10;;;18.40;99.90;;;;;;4895528;29;20941;-71
2022/07/01 07:08:41;;;;;;;0.60;0.10;;;18.50;99.90;;;;;;4895883;29;20453;-71
2022/07/01 07:11:09;;;;;;;0.60;0.10;;;18.60;99.90;;;;;;4895608;29;20449;-70
2022/07/01 07:13:39;;;;;;;0.90;0.53;;;18.50;99.90;;;;;;4895592;29;20470;-70
2022/07/01 07:16:07;;;;;;;0.60;0.20;;;18.30;99.90;;;;;;4897372;29;20518;-71
2022/07/01 07:18:35;;;;;;;0.60;0.10;;;18.30;99.90;;;;;;4899165;29;20457;-71
2022/07/01 07:21:03;;;;;;;0.60;0.20;;;18.30;1.00;;;;;;4899647;29;20453;-70
2022/07/01 07:23:31;;;;;;;0.60;0.20;;;18.30;99.90;;;;;;4908829;29;20492;-68
2022/07/01 07:25:59;;;;;;;0.60;0.20;;;18.30;1.00;;;;;;4908285;29;20442;-69
2022/07/01 07:28:27;;;;;;;0.60;0.10;;;18.50;99.90;;;;;;4904619;29;20452;-70
2022/07/01 07:30:56;;;;;;;0.60;0.10;;;18.30;99.90;;;;;;4904173;29;20456;-71
2022/07/01 07:33:24;;;;;;;0.60;0.10;;;18.20;99.90;;;;;;4899210;29;20474;-70
2022/07/01 07:35:52;;;;;;;0.60;0.10;;;18.00;1.00;;;;;;4899818;29;20457;-71
2022/07/01 07:38:20;;;;;;;0.60;0.10;;;18.00;1.00;;;;;;4903042;29;20959;-71
2022/07/01 07:40:48;;;;;;;0.60;0.10;;;18.00;1.00;;;;;;4901331;29;20501;-69
2022/07/01 07:43:16;;;;;;;0.60;0.20;;;18.10;1.00;;;;;;4917044;29;20991;-69
2022/07/01 07:45:44;;;;;;;3.53;0.40;;;18.20;1.00;;;;;;4917952;29;20976;-71
2022/07/01 07:48:13;;;;;;;0.60;0.20;;;17.90;1.00;;;;;;4906388;29;20954;-72
2022/07/01 07:50:41;;;;;;;0.60;0.10;;;17.80;1.00;;;;;;4899368;29;20858;-72
2022/07/01 07:53:11;;;;;;;0.60;0.10;;;17.60;1.00;;;;;;4899225;29;21082;-71
2022/07/01 07:55:40;;;;;;;0.60;0.20;;;17.50;1.00;;;;;;4899191;29;20452;-72
2022/07/01 07:58:08;;;;;;;0.60;0.10;;;17.30;1.00;;;;;;4898963;29;20449;-72
2022/07/01 08:00:36;;;;;;;0.60;0.20;;;17.20;1.00;;;;;;4899233;29;20462;-72
2022/07/01 08:03:07;;;;;;;0.60;0.20;;;17.20;1.00;;;;;;4898471;29;20488;-71
2022/07/01 08:05:37;;;;;;;0.60;0.20;;;17.20;1.00;;;;;;4898690;29;20549;-72
2022/07/01 08:08:05;;;;;;;0.60;0.10;;;17.20;1.00;;;;;;4898746;29;20531;-72
2022/07/01 08:10:33;;;;;;;0.60;0.10;;;17.20;1.00;;;;;;4898849;29;20544;-71
2022/07/01 08:13:04;;;;;;;0.60;0.10;;;17.10;1.00;;;;;;4893693;29;21022;-71
2022/07/01 08:15:32;;;;;;;0.60;0.13;;;18.60;1.00;;;;;;4898328;29;20442;-72
2022/07/01 08:18:00;;;;;;;0.60;0.10;;;17.20;1.00;;;;;;4900802;29;20512;-71
2022/07/01 08:20:28;;;;;;;0.60;0.10;;;17.20;1.00;;;;;;4898613;29;20468;-72
2022/07/01 08:22:57;;;;;;;0.60;0.10;;;17.30;1.00;;;;;;4907535;29;20473;-69
2022/07/01 08:25:25;;;;;;;0.60;0.17;;;17.00;1.00;;;;;;4911415;29;21090;-72
2022/07/01 08:28:01;;;;;;;0.60;0.10;;;17.50;1.00;;;;;;4905170;29;20453;-70
2022/07/01 08:30:29;;;;;;;0.60;0.13;;;17.50;1.00;;;;;;4898427;29;20453;-73
2022/07/01 08:32:57;;;;;;;0.60;0.10;;;17.60;1.00;;;;;;4898334;29;20960;-71
2022/07/01 08:35:25;;;;;;;0.60;0.10;;;17.50;1.00;;;;;;4898050;29;20458;-72
2022/07/01 08:37:53;;;;;;;0.60;0.20;;;17.90;1.00;;;;;;4898682;29;20452;-72
2022/07/01 08:40:25;;;;;;;0.60;0.10;;;17.90;1.00;;;;;;4898645;29;20543;-68
2022/07/01 08:42:57;;;;;;;0.60;0.10;;;18.20;1.00;;;;;;4898919;29;20553;-69
2022/07/01 08:45:27;;;;;;;0.60;0.10;;;18.40;1.00;;;;;;4893915;29;20499;-69
2022/07/01 08:47:57;;;;;;;0.60;0.20;;;18.40;1.00;;;;;;4895604;29;20461;-69
2022/07/01 08:50:26;;;;;;;0.60;0.10;;;18.50;1.00;;;;;;4902755;29;20448;-71
2022/07/01 08:52:54;;;;;;;0.60;0.10;;;18.60;1.00;;;;;;4879427;29;20486;-70
2022/07/01 08:55:24;;;;;;;0.60;0.10;;;18.60;1.00;;;;;;4841571;29;20448;-70
2022/07/01 08:57:52;;;;;;;0.60;0.10;;;18.60;1.00;;;;;;4839296;29;20564;-73
2022/07/01 09:00:21;;;;;;;0.60;0.10;;;18.70;1.00;;;;;;4840798;29;20872;-71
2022/07/01 09:02:57;;;;;;;0.60;0.20;;;18.80;1.00;;;;;;4874728;23;20484;-72
2022/07/01 09:05:27;;;;;;;0.60;0.10;;;18.80;1.00;;;;;;4931846;29;20875;-69
2022/07/01 09:08:02;;;;;;;0.60;0.10;;;18.90;1.00;;;;;;4936248;29;20959;-64
2022/07/01 09:10:34;;;;;;;0.60;0.20;;;19.00;1.00;;;;;;4935999;29;20462;-69
2022/07/01 09:13:07;;;;;;;0.60;0.10;;;19.00;1.00;;;;;;4930045;29;20464;-68
2022/07/01 09:15:36;;;;;;;0.60;0.10;;;19.00;1.00;;;;;;4935449;29;20495;-69
2022/07/01 09:18:10;;;;;;;0.60;0.10;;;18.70;1.00;;;;;;4935128;29;20783;-66
2022/07/01 09:20:40;;;;;;;0.60;0.10;;;18.50;1.00;;;;;;4935096;29;20555;-67
2022/07/01 09:23:11;;;;;;;0.60;0.20;;;17.80;1.00;;;;;;4936443;29;20494;-66
2022/07/01 09:25:43;;;;;;;0.60;0.20;;;17.70;1.00;;;;;;4934635;29;21140;-68
2022/07/01 09:28:21;;;;;;;0.60;0.10;;;17.60;1.00;;;;;;4936212;29;20475;-67
2022/07/01 09:30:52;;;;;;;0.60;0.20;;;17.60;1.00;;;;;;4936216;29;20444;-67
2022/07/01 09:33:21;;;;;;;0.60;0.10;;;17.80;1.00;;;;;;4935901;29;20464;-66
2022/07/01 09:35:50;;;;;;;0.60;0.10;;;17.80;1.00;;;;;;4935873;29;20478;-68
2022/07/01 09:38:20;;;;;;;0.60;0.20;;;17.90;1.00;;;;;;4933946;29;20455;-70
2022/07/01 09:41:03;;;;;;;0.60;0.10;;;17.90;1.00;;;;;;4924313;29;20457;-66
2022/07/01 09:43:35;;;;;;;0.60;0.10;;;18.00;1.00;;;;;;4928514;29;20483;-72
2022/07/01 09:46:06;;;;;;;0.60;0.10;;;18.00;1.00;;;;;;4920056;29;20577;-69
2022/07/01 09:48:46;;;;;;;0.60;0.10;;;17.90;1.00;;;;;;4933721;29;20447;-69
2022/07/01 09:51:16;;;;;;;0.60;0.20;;;18.00;1.00;;;;;;4934528;29;20455;-67
2022/07/01 09:53:44;;;;;;;0.60;0.10;;;18.20;1.00;;;;;;4934710;29;20821;-68
2022/07/01 09:56:14;;;;;;;0.60;0.10;;;18.20;1.00;;;;;;4930270;29;20524;-68
2022/07/01 09:58:42;;;;;;;0.60;0.20;;;18.30;1.00;;;;;;4916177;29;20952;-69
2022/07/01 10:01:12;;;;;;;0.90;0.50;;;18.50;1.00;;;;;;4933402;29;20528;-68
2022/07/01 10:03:40;;;;;;;0.60;0.10;;;18.50;1.00;;;;;;4934395;29;21064;-68
2022/07/01 10:06:41;;;;;;;0.60;0.20;;;18.50;1.00;;;;;;4935407;29;20486;-67
2022/07/01 10:09:33;;;;;;;0.60;0.10;;;18.50;1.00;;;;;;4918787;29;20448;-67
2022/07/01 10:12:40;;;;;;;0.60;0.10;;;18.50;99.90;;;;;;4920955;29;20458;-74
2022/07/01 10:15:12;;;;;;;0.60;0.20;;;18.40;99.90;;;;;;4932706;29;20463;-76
2022/07/01 10:17:44;;;;;;;0.60;0.20;;;18.50;1.00;;;;;;4936271;29;20440;-74
2022/07/01 10:20:14;;;;;;;0.60;0.20;;;18.80;99.90;;;;;;4932658;29;20478;-75
2022/07/01 10:22:49;;;;;;;0.70;0.20;;;19.20;99.90;;;;;;4933739;29;20961;-77
2022/07/01 10:25:39;;;;;;;0.60;0.10;;;19.10;99.90;;;;;;4917935;29;20477;-73
2022/07/01 10:28:21;;;;;;;0.60;0.10;;;19.20;99.90;;;;;;4925418;29;20478;-75
2022/07/01 10:30:57;;;;;;;0.60;0.10;;;19.30;99.90;;;;;;4931331;29;20453;-75
2022/07/01 10:33:50;;;;;;;0.60;0.10;;;19.40;99.90;;;;;;4934038;29;20660;-75
2022/07/01 10:36:25;;;;;;;0.60;0.10;;;19.40;99.90;;;;;;4921424;29;20499;-75
2022/07/01 10:39:13;;;;;;;0.60;0.10;;;19.40;99.90;;;;;;4934455;29;20459;-75
2022/07/01 10:41:43;;;;;;;0.60;0.10;;;19.50;99.90;;;;;;4936022;29;20456;-75
2022/07/01 10:44:14;;;;;;;0.60;0.20;;;19.60;99.90;;;;;;4944654;29;20512;-75
2022/07/01 10:46:48;;;;;;;0.60;0.10;;;19.70;99.90;;;;;;4949943;29;20982;-76
2022/07/01 10:49:18;;;;;;;0.60;0.10;;;19.60;99.90;;;;;;4943013;29;20448;-74
2022/07/01 10:51:48;;;;;;;0.60;0.20;;;19.60;99.90;;;;;;4940239;29;20462;-76
2022/07/01 10:54:48;;;;;;;0.60;0.10;;;19.80;99.90;;;;;;4939606;29;20551;-74
2022/07/01 10:57:27;;;;;;;0.60;0.20;;;19.90;99.90;;;;;;4940320;29;20507;-73
2022/07/01 11:00:18;;;;;;;0.60;0.20;;;20.10;99.90;;;;;;4941129;29;20452;-74
2022/07/01 11:02:46;;;;;;;0.60;0.10;;;20.30;99.90;;;;;;4939584;29;20827;-74
2022/07/01 11:05:16;;;;;;;0.70;0.30;;;20.20;99.90;;;;;;4936743;29;20535;-75
2022/07/01 11:07:46;;;;;;;0.70;0.20;;;20.50;99.90;;;;;;4938671;29;20534;-74
2022/07/01 11:10:16;;;;;;;0.70;0.10;;;20.50;99.90;;;;;;4938907;29;20542;-75
2022/07/01 11:12:48;;;;;;;0.70;0.20;;;20.90;99.90;;;;;;4938652;29;20767;-73
2022/07/01 11:15:18;;;;;;;0.70;0.10;;;20.90;99.90;;;;;;4938178;29;20440;-74
2022/07/01 11:17:48;;;;;;;0.67;0.10;;;21.00;99.90;;;;;;4938090;29;20574;-74
2022/07/01 11:20:16;;;;;;;0.70;0.20;;;21.00;99.90;;;;;;4937718;29;20455;-73
2022/07/01 11:22:51;;;;;;;0.60;0.10;;;21.00;99.90;;;;;;4937962;29;20564;-75
2022/07/01 11:25:20;;;;;;;0.70;0.20;;;21.00;99.90;;;;;;4939338;29;21031;-73
2022/07/01 11:27:50;;;;;;;0.70;0.17;;;20.90;99.90;;;;;;4938766;29;20463;-76
2022/07/01 11:30:21;;;;;;;0.60;0.10;;;20.80;99.90;;;;;;4938158;29;20450;-73
2022/07/01 11:32:53;;;;;;;0.70;0.20;;;20.70;99.90;;;;;;4937640;29;20896;-77
2022/07/01 11:41:00;;;;;;;0.63;0.10;;;20.80;99.90;;;;;;4937518;29;20456;-75
2022/07/01 11:43:29;;;;;;;0.70;0.10;;;21.00;99.90;;;;;;4934481;29;20773;-74
2022/07/01 11:46:01;;;;;;;0.70;0.23;;;21.00;99.90;;;;;;4924428;29;20539;-77
2022/07/01 11:48:36;;;;;;;0.70;0.10;;;21.00;99.90;;;;;;4939033;29;20610;-76
2022/07/01 11:51:10;;;;;;;0.70;0.20;;;21.00;99.90;;;;;;4940592;29;20482;-77
2022/07/01 11:53:38;;;;;;;0.60;0.10;;;20.80;99.90;;;;;;4939407;29;20841;-75
2022/07/01 11:56:07;;;;;;;0.70;0.20;;;20.80;99.90;;;;;;4937289;29;20488;-78
2022/07/01 11:58:50;;;;;;;0.70;0.20;;;20.90;99.90;;;;;;4938147;29;20874;-75
2022/07/01 12:01:24;;;;;;;0.70;0.10;;;21.10;99.90;;;;;;4919973;29;20527;-77
2022/07/01 12:03:53;;;;;;;0.70;0.17;;;21.30;99.90;;;;;;4922591;29;21058;-76
2022/07/01 12:06:23;;;;;;;0.70;0.20;;;21.40;99.90;;;;;;4922219;29;20901;-78
2022/07/01 12:08:53;;;;;;;0.70;0.10;;;21.60;99.90;;;;;;4922137;29;20619;-77
2022/07/01 12:11:22;;;;;;;0.70;0.20;;;21.60;99.90;;;;;;4922175;29;20548;-77
2022/07/01 12:13:51;;;;;;;0.70;0.10;;;21.60;99.90;;;;;;4931340;29;20980;-77
2022/07/01 12:16:20;;;;;;;0.70;0.20;;;21.60;99.90;;;;;;4937146;29;20447;-76
2022/07/01 12:18:58;;;;;;;0.67;0.10;;;21.60;99.90;;;;;;4937804;29;20452;-76
2022/07/01 12:21:26;;;;;;;0.70;0.20;;;21.50;99.90;;;;;;4937693;29;20451;-77
2022/07/01 12:24:05;;;;;;;0.70;0.20;;;21.30;99.90;;;;;;4938120;29;20563;-76
2022/07/01 12:26:33;;;;;;;0.70;0.10;;;21.30;99.90;;;;;;4933216;29;20853;-76
2022/07/01 12:29:01;;;;;;;0.70;0.20;;;21.30;99.90;;;;;;4934936;29;20543;-77
2022/07/01 12:31:29;;;;;;;0.70;0.20;;;21.50;99.90;;;;;;4937986;29;20456;-76
2022/07/01 12:33:58;;;;;;;0.70;0.20;;;21.80;99.90;;;;;;4937177;29;20514;-75
2022/07/01 12:36:26;;;;;;;0.70;0.20;;;21.80;99.90;;;;;;4937683;29;20452;-76
2022/07/01 12:39:04;;;;;;;0.70;0.20;;;21.90;99.90;;;;;;4937221;29;20464;-77
2022/07/01 12:41:34;;;;;;;0.70;0.13;;;21.90;99.90;;;;;;4937479;29;20459;-76
2022/07/01 12:44:07;;;;;;;0.70;0.10;;;21.90;99.90;;;;;;4938207;29;20459;-77
2022/07/01 12:46:36;;;;;;;0.70;0.10;;;21.80;99.90;;;;;;4940607;29;20586;-78
2022/07/01 12:49:06;;;;;;;0.70;0.20;;;;;;;;;;4940949;29;20966;-77
2022/07/01 12:51:34;;;;;;;0.70;0.10;;;21.80;99.90;;;;;;4940858;29;20440;-75
2022/07/01 12:54:02;;;;;;;0.70;0.10;;;21.80;99.90;;;;;;4935374;29;20936;-75
2022/07/01 12:56:30;;;;;;;0.70;0.20;;;21.80;99.90;;;;;;4921119;29;20457;-77
2022/07/01 12:58:58;;;;;;;0.70;0.10;;;21.80;99.90;;;;;;4922542;29;20845;-77
2022/07/01 13:01:26;;;;;;;0.70;0.20;;;21.70;99.90;;;;;;4933303;29;20523;-77
2022/07/01 13:03:54;;;;;;;0.70;0.20;;;21.60;99.90;;;;;;4939740;29;20503;-75
2022/07/01 13:06:24;;;;;;;0.70;0.20;;;21.60;99.90;;;;;;4941118;29;20530;-76
2022/07/01 13:08:53;;;;;;;0.70;0.10;;;21.50;99.90;;;;;;4938240;29;20460;-78
2022/07/01 13:11:21;;;;;;;0.70;0.20;;;21.50;99.90;;;;;;4938166;29;20503;-77
2022/07/01 13:13:49;;;;;;;0.70;0.10;;;21.50;99.90;;;;;;4936048;29;20466;-77
2022/07/01 13:16:17;;;;;;;0.70;0.17;;;21.60;99.90;;;;;;4936515;29;20459;-77
2022/07/01 13:18:45;;;;;;;0.70;0.10;;;21.50;99.90;;;;;;4937228;29;20440;-77
2022/07/01 13:21:13;;;;;;;0.70;0.10;;;21.50;99.90;;;;;;4937036;29;20946;-77
2022/07/01 13:23:42;;;;;;;0.70;0.10;;;21.40;99.90;;;;;;4934500;29;21006;-76